Station: Hindmarsh Island

  Atmospheric Gas Attenuation - ITU Rec 676-11   --------------- db/100km ---------------
Date Time Temp RH % AH g/m3 Dew Point Wind Direction Speed kph Gust kph Barometer mB Rainfall Since 9am 24GHz 47GHz 76GHz 122GHz 134GHz 241GHz
21 17:50 13.5 71 8.31 8.4 30 37 1004 0.8 19.0 25.2 38.4 100.8 94.2 323.9
21 17:40 13.7 69 8.17 8.1 32 52 1003.8 0.8 18.7 24.9 37.7 99.0 92.1 316.7
21 17:30 13.6 72 8.47 8.7 33 48 1003.7 0.8 19.3 25.4 39.0 102.3 96.2 330.7
21 17:20 13.7 74 8.76 9.2 32 35 1003.6 0.8 19.9 25.8 40.1 105.3 99.8 343.6
21 17:10 13.8 75 8.94 9.5 30 37 1003.7 0.8 20.3 26.1 40.7 107.1 102.1 351.6
21 17:00 15.4 62 8.15 8.2 44 65 1003.3 0.2 18.6 24.4 36.8 96.7 89.9 308.9
21 16:50 16.7 51 7.25 6.5 35 48 1002.8 0 16.6 22.7 32.9 86.2 77.4 265.4
21 16:40 17.4 47 6.96 6 44 54 1002.1 0 16.0 22.0 31.5 82.6 73.2 250.9
21 16:30 17.5 45 6.71 5.4 44 69 1002.1 0 15.4 21.7 30.6 80.1 70.2 240.4
21 16:20 17.7 43 6.49 5 41 56 1002.2 0 15.0 21.3 29.8 77.9 67.5 230.9
21 16:10 17.8 44 6.68 5.4 44 59 1002 0 15.3 21.5 30.4 79.5 69.6 238.2
21 16:00 17.8 44 6.68 5.4 50 70 1002.1 0 15.3 21.5 30.4 79.5 69.6 238.3
21 15:50 18 43 6.6 5.2 48 65 1002.2 0 15.2 21.4 30.1 78.6 68.5 234.5
21 15:40 18 42 6.45 4.9 44 56 1002.2 0 14.9 21.2 29.5 77.2 66.8 228.4
21 15:30 18.2 41 6.37 4.7 50 67 1002.3 0 14.7 21.0 29.2 76.3 65.7 224.7
21 15:20 18.4 40 6.29 4.6 46 63 1002.3 0 14.5 20.9 28.8 75.4 64.7 221.0
21 15:10 18.1 43 6.64 5.3 48 63 1002.2 0 15.3 21.4 30.2 78.9 68.9 235.8
21 15:00 18.2 44 6.84 5.8 48 67 1002.3 0 15.7 21.7 30.8 80.7 71.1 243.6
21 14:50 18.3 44 6.88 5.8 48 67 1002.4 0 15.8 21.7 30.9 81.0 71.5 244.9
21 14:40 18.2 42 6.53 5.1 54 65 1002.3 0 15.0 21.2 29.7 77.8 67.6 231.1
21 14:30 18.3 45 7.04 6.2 46 65 1002.6 0 16.1 22.0 31.5 82.5 73.4 251.5
21 14:20 18.1 44 6.8 5.7 52 65 1002.5 0 15.6 21.7 30.7 80.4 70.8 242.3
21 14:10 18 45 6.91 5.9 54 65 1002.5 0 15.8 21.8 31.1 81.5 72.1 247.1
21 14:00 18 46 7.06 6.2 50 72 1002.8 0 16.1 22.1 31.7 83.0 73.9 253.3
21 13:50 17.9 45 6.87 5.8 54 72 1002.7 0 15.7 21.8 31.1 81.3 71.8 245.8
21 13:40 18 45 6.91 5.9 46 67 1002.8 0 15.8 21.8 31.2 81.6 72.2 247.2
21 13:30 18.4 47 7.39 6.9 52 80 1002.9 0 16.8 22.4 32.7 85.7 77.4 265.6
21 13:20 18 47 7.22 6.5 48 59 1002.8 0 16.5 22.3 32.3 84.5 75.8 259.9
21 13:10 18 45 6.91 5.9 59 76 1002.5 0 15.8 21.8 31.1 81.5 72.1 247.1
21 13:00 17.9 48 7.33 6.7 48 69 1002.7 0 16.7 22.5 32.7 85.7 77.2 264.7
21 12:50 17.8 46 6.98 6 54 70 1002.5 0 16.0 22.0 31.5 82.4 73.1 250.6
21 12:40 18.1 46 7.11 6.3 50 67 1002.6 0 16.2 22.1 31.8 83.3 74.4 255.0
21 12:30 17.5 47 7.01 6.1 48 70 1002.5 0 16.1 22.1 31.7 83.0 73.8 252.7
21 12:20 17.8 44 6.68 5.4 63 76 1002.3 0 15.3 21.5 30.4 79.6 69.6 238.3
21 12:10 17.9 44 6.72 5.5 52 65 1002.6 0 15.4 21.6 30.5 79.9 70.0 239.7
21 12:00 17.6 42 6.3 4.6 56 80 1002.2 0 14.6 21.1 29.2 76.2 65.4 223.5
21 11:50 18 40 6.14 4.2 57 76 1002.4 0 14.2 20.7 28.5 74.4 63.3 216.1
21 11:40 18.2 42 6.53 5.1 39 56 1002.3 0 15.0 21.2 29.7 77.8 67.6 231.1
21 11:30 18.3 39 6.1 4.1 52 65 1002.1 0 14.1 20.6 28.2 73.7 62.6 213.7
21 11:20 17.8 40 6.07 4 54 69 1002 0 14.1 20.7 28.3 73.9 62.7 213.8
21 11:10 17.8 38 5.77 3.3 56 69 1001.9 0 13.4 20.3 27.3 71.2 59.3 202.0
21 11:00 18 39 5.99 3.9 50 76 1002.2 0 13.9 20.5 28.0 73.0 61.6 210.2
21 10:50 17.7 38 5.73 3.2 50 65 1002 0 13.3 20.2 27.2 70.9 58.9 200.7
21 10:40 17.8 37 5.62 2.9 46 56 1002 0 13.1 20.1 26.8 69.8 57.6 196.1
21 10:30 17.5 35 5.22 1.9 50 80 1001.9 0 12.3 19.6 25.5 66.5 53.4 181.3
21 10:20 17.4 34 5.04 1.4 44 61 1001.8 0 11.9 19.4 25.0 65.0 51.5 174.6
21 10:10 17.2 34 4.98 1.2 50 63 1001.9 0 11.8 19.3 24.8 64.6 51.0 172.8
21 10:00 17.4 33 4.89 1 37 52 1002.2 0 11.6 19.2 24.5 63.7 49.9 169.0
21 09:50 16.8 34 4.86 0.9 39 50 1002.3 0 11.5 19.3 24.6 63.9 50.0 169.1
21 09:40 16.7 34 4.83 0.8 37 46 1002.3 0 11.5 19.2 24.5 63.7 49.7 168.1
21 09:30 16.1 37 5.07 1.4 44 67 1002.4 0 12.0 19.7 25.5 66.4 52.7 178.7
21 09:20 16 39 5.31 2.1 37 46 1002.5 0 12.5 20.0 26.3 68.6 55.5 188.3
21 09:10 15.6 41 5.45 2.4 48 61 1002.5 0 12.8 20.3 26.9 70.2 57.3 194.8
21 09:00 15.4 44 5.78 3.2 43 61 1002.7 0 13.5 20.8 28.1 73.5 61.2 208.5
21 08:50 15.2 46 5.97 3.7 39 50 1002.7 3.2 13.9 21.2 28.9 75.4 63.6 216.8
21 08:40 15 47 6.03 3.8 41 54 1002.8 3.2 14.1 21.3 29.2 76.2 64.5 219.8
21 08:30 14.8 51 6.46 4.8 26 32 1002.9 3.2 15.0 22.0 30.8 80.5 69.7 238.2
21 08:20 14.8 51 6.46 4.8 26 43 1002.9 3.2 15.0 22.0 30.8 80.5 69.7 238.2
21 08:10 14.6 52 6.51 4.9 30 39 1003.1 3.2 15.1 22.1 31.0 81.2 70.5 240.9
21 08:00 14.6 54 6.76 5.4 20 35 1003.4 3.2 15.6 22.5 32.0 83.7 73.5 251.5
21 07:50 14.1 56 6.8 5.5 17 22 1003.5 3.2 15.7 22.7 32.3 84.6 74.5 254.9
21 07:40 13.9 59 7.07 6 22 26 1003.5 3.2 16.3 23.1 33.4 87.5 78.0 267.1
21 07:30 13.5 58 6.78 5.4 17 26 1003.5 3.2 15.7 22.8 32.5 85.0 74.8 255.9
21 07:20 13.3 60 6.93 5.7 17 20 1003.5 3.2 16.1 23.1 33.1 86.7 76.8 263.0
21 07:10 12.9 60 6.76 5.3 24 28 1003.5 3.2 15.7 22.9 32.6 85.5 75.1 257.0
21 07:00 12.7 61 6.79 5.4 19 30 1003.6 3.2 15.8 23.0 32.8 86.0 75.7 258.9
21 06:50 12.4 62 6.77 5.3 17 20 1003.6 3.2 15.7 23.0 32.9 86.1 75.7 259.0
21 06:40 12.2 64 6.91 5.6 17 20 1003.6 3.2 16.1 23.3 33.5 87.8 77.7 265.8
21 06:30 12.2 64 6.91 5.6 24 39 1003.7 3.2 16.1 23.3 33.5 87.8 77.7 265.9
21 06:20 12.2 65 7.01 5.8 26 33 1003.5 3.2 16.3 23.5 33.9 88.8 78.9 270.2
21 06:10 12.4 65 7.1 6 32 41 1003.3 3.2 16.5 23.5 34.1 89.4 79.9 273.5
21 06:00 12.4 64 6.99 5.8 33 46 1003.1 3.2 16.2 23.4 33.7 88.3 78.5 268.6
21 05:50 12.4 64 6.99 5.8 35 43 1003.1 3.2 16.2 23.4 33.7 88.3 78.5 268.6
21 05:40 12.5 64 7.04 5.9 28 35 1003.1 3.2 16.3 23.4 33.9 88.7 79.0 270.5
21 05:30 12.5 65 7.15 6.1 37 56 1002.9 3.2 16.6 23.6 34.3 89.8 80.4 275.3
21 05:20 12.4 64 6.99 5.8 30 39 1002.8 3.2 16.2 23.4 33.7 88.3 78.4 268.5
21 05:10 12.5 64 7.04 5.9 33 41 1002.8 3.2 16.3 23.4 33.8 88.7 79.0 270.4
21 04:50 12.5 64 7.04 5.9 28 43 1002.9 3.2 16.3 23.4 33.8 88.7 79.0 270.4
21 04:40 12.7 63 7.01 5.8 28 35 1002.9 3.2 16.2 23.3 33.6 88.2 78.4 268.4
21 04:30 12.6 64 7.08 6 32 46 1003 3.2 16.4 23.4 34.0 89.0 79.4 271.9
21 04:20 12.7 63 7.01 5.8 26 30 1003.1 3.2 16.2 23.3 33.7 88.2 78.4 268.5
21 04:10 12.7 63 7.01 5.8 33 43 1003.3 3.2 16.2 23.3 33.7 88.2 78.4 268.5
21 04:00 12.7 64 7.13 6.1 30 44 1003.4 3.2 16.5 23.5 34.1 89.4 79.9 273.8
21 03:50 12.8 65 7.28 6.4 32 37 1003.4 3.2 16.8 23.7 34.7 90.8 81.7 280.1
21 03:40 12.8 64 7.17 6.2 32 37 1003.4 3.2 16.6 23.5 34.2 89.7 80.3 275.2
21 03:30 12.6 65 7.19 6.2 24 37 1003.4 3.2 16.6 23.6 34.4 90.2 80.8 276.8
21 03:20 12.6 66 7.3 6.4 28 37 1003.4 3.2 16.9 23.8 34.8 91.3 82.2 281.7
21 03:10 12.6 66 7.3 6.4 32 35 1003.3 3.2 16.9 23.8 34.8 91.3 82.2 281.7
21 03:00 12.5 65 7.15 6.1 32 44 1003.3 3.2 16.6 23.6 34.3 89.8 80.4 275.4
21 02:50 12.7 63 7.01 5.8 33 41 1003.1 3.2 16.2 23.3 33.7 88.2 78.4 268.5
21 02:40 12.9 61 6.88 5.6 39 46 1003 3.2 16.0 23.1 33.1 86.6 76.6 262.1
21 02:30 13 60 6.8 5.4 41 59 1003 3.2 15.8 22.9 32.7 85.7 75.5 258.3
21 02:20 12.8 61 6.83 5.5 39 48 1003 3.2 15.9 23.0 32.9 86.2 76.1 260.2
21 02:10 12.9 62 6.99 5.8 46 56 1002.8 3.2 16.2 23.2 33.5 87.7 77.9 266.8
21 02:00 13 63 7.15 6.1 43 61 1003 3.2 16.5 23.4 34.1 89.3 79.9 273.6
21 01:50 13.2 62 7.12 6.1 46 59 1003.1 3.2 16.5 23.4 33.9 88.7 79.3 271.6
21 01:40 13.3 60 6.93 5.7 43 57 1003.3 3.2 16.1 23.0 33.1 86.7 76.8 263.0
21 01:30 13.4 60 6.98 5.8 46 67 1003.4 3.2 16.2 23.1 33.3 87.1 77.4 264.9
21 01:20 13.5 60 7.02 5.9 52 61 1003 3.2 16.2 23.1 33.4 87.4 77.7 266.2
21 01:10 13.7 57 6.75 5.3 44 61 1003.3 3.2 15.7 22.7 32.3 84.5 74.2 253.9

Last Refresh: 21-Sep-2020 18:03:46

Most of the information presented on this site is sourced from the Bureau of Meteorology.  Copyright in all material sourced from the Bureau of Meteorology resides with the Commonwealth of Australia.